Terminal Aerodrome Forecast
Issued by NWS Knoxville/Tri Cities, TN

Home | Current Version | Previous Version | Text Only | Print | Product List | Glossary On
Versions: 1 2 3 4 5 6 7 8 9 10 11 12
000
FTUS44 KMRX 230525
TAFTYS
TAF
KTYS 230525Z 2306/2406 22006KT P6SM FEW050 SCT250
     FM231400 23007KT P6SM SCT045
     FM231900 24010G16KT P6SM VCTS BKN045CB BKN250
     FM240100 23007KT P6SM VCTS SCT040CB BKN150=

USA.gov is the U.S. government's official web portal to all federal, state and local government web resources and services.